Time;durP1;ratioP1;P1;durP2;ratioP2;P2;SDS_P1;SDS_P2;PMS_P1;PMS_P2;Temp;Humidity;BMP_temperature;BMP_pressure;BME280_temperature;BME280_humidity;BME280_pressure;Samples;Min_cycle;Max_cycle;Signal;HPM_P1;HPM_P2
2023/12/30 00:00:26;;;;;;;1.58;1.40;;;;;;;4.61;76.04;99391.22;4983749;28;20097;-50
2023/12/30 00:02:53;;;;;;;6.35;1.50;;;;;;;4.65;75.65;99397.25;4981902;28;20407;-46
2023/12/30 00:05:20;;;;;;;4.18;1.63;;;;;;;4.62;75.89;99387.81;4980176;28;20668;-49
2023/12/30 00:07:46;;;;;;;2.45;1.88;;;;;;;4.55;75.83;99387.72;4985921;28;20417;-46
2023/12/30 00:10:14;;;;;;;2.15;1.50;;;;;;;4.65;75.79;99396.38;4988132;28;20488;-47
2023/12/30 00:12:41;;;;;;;2.88;1.63;;;;;;;4.65;76.04;99398.94;4972349;28;20488;-46
2023/12/30 00:15:08;;;;;;;3.28;2.33;;;;;;;4.66;76.00;99410.94;4984565;28;20588;-48
2023/12/30 00:17:36;;;;;;;3.33;1.92;;;;;;;4.67;75.35;99402.38;4982676;28;20054;-45
2023/12/30 00:20:03;;;;;;;1.17;0.73;;;;;;;4.60;75.42;99399.75;4981985;28;20393;-46
2023/12/30 00:22:31;;;;;;;1.55;1.45;;;;;;;4.59;76.12;99400.59;4979983;28;20066;-44
2023/12/30 00:24:58;;;;;;;1.65;1.55;;;;;;;4.59;75.98;99398.03;4986104;28;20046;-48
2023/12/30 00:27:25;;;;;;;4.28;1.27;;;;;;;4.56;75.84;99403.13;4980618;28;20046;-46
2023/12/30 00:29:52;;;;;;;0.60;0.28;;;;;;;4.59;75.94;99410.84;4983801;28;20616;-45
2023/12/30 00:32:19;;;;;;;5.10;4.00;;;;;;;4.63;75.43;99417.75;4979974;28;20050;-46
2023/12/30 00:34:47;;;;;;;4.32;1.83;;;;;;;4.62;75.94;99416.03;4985033;28;20050;-46
2023/12/30 00:37:18;;;;;;;1.30;1.20;;;;;;;4.55;75.91;99406.53;4982391;28;20096;-42
2023/12/30 00:39:49;;;;;;;4.85;0.98;;;;;;;4.63;75.59;99416.91;4980705;28;20381;-48
2023/12/30 00:42:16;;;;;;;2.75;1.23;;;;;;;4.59;75.54;99421.13;4977570;28;20496;-47
2023/12/30 00:44:44;;;;;;;6.63;0.77;;;;;;;4.65;75.38;99414.31;4984646;28;20564;-46
2023/12/30 00:47:11;;;;;;;2.70;1.90;;;;;;;4.60;75.02;99411.72;4984386;28;20054;-52
2023/12/30 00:49:38;;;;;;;2.17;1.98;;;;;;;4.58;75.24;99406.56;4979982;28;20050;-44
2023/12/30 00:52:05;;;;;;;3.08;1.60;;;;;;;4.60;75.32;99411.72;4985867;28;20050;-50
2023/12/30 00:54:31;;;;;;;6.22;1.42;;;;;;;4.59;75.96;99413.41;4984502;28;20038;-46
2023/12/30 00:57:09;;;;;;;2.70;1.58;;;;;;;4.59;75.35;99408.28;4984927;28;20049;-46
2023/12/30 00:59:37;;;;;;;1.42;0.50;;;;;;;4.56;75.37;99410.81;4982789;28;20464;-49
2023/12/30 01:02:04;;;;;;;2.08;1.90;;;;;;;4.55;75.85;99409.09;4983394;28;20074;-46
2023/12/30 01:04:33;;;;;;;3.10;2.03;;;;;;;4.49;75.95;99424.41;4984068;28;20092;-46
2023/12/30 01:06:59;;;;;;;2.95;1.42;;;;;;;4.55;75.77;99419.38;4982387;28;20105;-48
2023/12/30 01:09:26;;;;;;;4.38;1.90;;;;;;;4.58;75.99;99427.09;4983422;28;20100;-48
2023/12/30 01:11:53;;;;;;;4.32;2.15;;;;;;;4.56;75.56;99421.06;4978267;28;20047;-46
2023/12/30 01:14:19;;;;;;;5.90;1.67;;;;;;;4.57;75.46;99424.50;4983345;28;20053;-48
2023/12/30 01:16:46;;;;;;;9.25;1.75;;;;;;;4.56;76.06;99431.34;4980774;28;20508;-45
2023/12/30 01:19:13;;;;;;;2.05;1.05;;;;;;;4.55;75.60;99428.75;4988424;28;20138;-46
2023/12/30 01:21:40;;;;;;;2.30;2.10;;;;;;;4.56;75.75;99428.75;4985426;28;20074;-53
2023/12/30 01:24:07;;;;;;;1.88;1.58;;;;;;;4.56;75.97;99426.19;4985108;28;20492;-45
2023/12/30 01:26:38;;;;;;;3.17;1.35;;;;;;;4.58;76.40;99428.78;4985211;28;20042;-45
2023/12/30 01:29:05;;;;;;;2.38;1.90;;;;;;;4.58;75.81;99433.91;4989770;28;20074;-49
2023/12/30 01:31:32;;;;;;;2.22;2.03;;;;;;;4.58;76.13;99434.78;4990282;28;20054;-47
2023/12/30 01:33:59;;;;;;;2.10;1.63;;;;;;;4.58;76.23;99424.53;4989804;28;20046;-44
2023/12/30 01:36:26;;;;;;;1.27;0.73;;;;;;;4.56;76.24;99436.47;4990215;28;20459;-53
2023/12/30 01:38:53;;;;;;;1.88;1.77;;;;;;;4.54;75.42;99438.16;4988040;28;20046;-45
2023/12/30 01:41:21;;;;;;;3.25;2.08;;;;;;;4.55;75.42;99434.75;4990621;28;20466;-47
2023/12/30 01:43:48;;;;;;;3.58;2.42;;;;;;;4.56;75.45;99444.16;4986509;28;20054;-45
2023/12/30 01:46:14;;;;;;;5.47;1.55;;;;;;;4.53;75.71;99451.84;4989644;28;20081;-44
2023/12/30 01:48:41;;;;;;;1.65;1.15;;;;;;;4.51;76.40;99448.38;4983264;28;20141;-48
2023/12/30 01:51:09;;;;;;;1.25;1.25;;;;;;;4.50;76.13;99446.66;4985473;28;20113;-45
2023/12/30 01:53:52;;;;;;;1.48;1.15;;;;;;;4.50;76.14;99451.78;4982872;28;20137;-41
2023/12/30 01:56:21;;;;;;;3.13;1.33;;;;;;;4.51;76.46;99458.63;4981219;28;20046;-45
2023/12/30 01:58:50;;;;;;;6.90;1.60;;;;;;;4.55;76.30;99465.53;4983322;28;20058;-48
2023/12/30 02:01:22;;;;;;;3.13;1.92;;;;;;;4.53;76.08;99462.09;4983377;28;20523;-47
2023/12/30 02:03:49;;;;;;;;;;;;;;;4.45;76.31;99456.84;4981937;28;20053;-44
2023/12/30 02:06:16;;;;;;;2.55;1.45;;;;;;;4.49;75.89;99460.31;4982420;28;19926;-45
2023/12/30 02:08:43;;;;;;;5.63;1.77;;;;;;;4.50;76.24;99462.06;4990646;28;20066;-40
2023/12/30 02:11:12;;;;;;;2.67;2.58;;;;;;;4.48;76.10;99463.72;4967062;28;20042;-47
2023/12/30 02:13:41;;;;;;;1.90;1.23;;;;;;;4.47;76.26;99465.44;4990337;28;20074;-45
2023/12/30 02:16:08;;;;;;;2.40;2.00;;;;;;;4.45;76.40;99466.25;4989429;28;20080;-41
2023/12/30 02:18:35;;;;;;;4.25;2.22;;;;;;;4.43;76.47;99465.38;4984303;28;20113;-47
2023/12/30 02:21:01;;;;;;;3.15;1.35;;;;;;;4.41;76.98;99469.59;4987262;28;20050;-47
2023/12/30 02:23:28;;;;;;;3.92;1.67;;;;;;;4.41;76.60;99472.19;4988158;28;20038;-50
2023/12/30 02:25:55;;;;;;;2.38;1.50;;;;;;;4.39;76.72;99471.31;4987529;28;20050;-40
2023/12/30 02:28:21;;;;;;;1.70;1.58;;;;;;;4.37;76.95;99472.16;4988287;28;20046;-47
2023/12/30 02:30:49;;;;;;;4.15;1.83;;;;;;;4.36;76.67;99480.66;4981893;28;20047;-46
2023/12/30 02:33:16;;;;;;;5.60;2.35;;;;;;;4.35;77.17;99484.09;4984874;28;20054;-43
2023/12/30 02:35:43;;;;;;;1.75;1.50;;;;;;;4.34;77.06;99487.50;4983580;28;20105;-43
2023/12/30 02:38:10;;;;;;;3.40;1.42;;;;;;;4.35;76.59;99489.22;4984641;28;20116;-46
2023/12/30 02:40:39;;;;;;;1.75;1.65;;;;;;;4.34;77.16;99492.63;4986923;28;20050;-46
2023/12/30 02:43:05;;;;;;;5.32;1.63;;;;;;;4.33;76.86;99483.19;4985107;28;20054;-42
2023/12/30 02:45:33;;;;;;;2.92;1.83;;;;;;;4.34;76.70;99482.38;4982244;28;20055;-49
2023/12/30 02:48:00;;;;;;;7.93;2.33;;;;;;;4.35;77.03;99489.22;4980877;28;20050;-45
2023/12/30 02:50:27;;;;;;;4.82;1.50;;;;;;;4.32;77.27;99486.59;4982766;28;20535;-46
2023/12/30 02:52:54;;;;;;;1.73;1.48;;;;;;;4.32;76.58;99483.19;4982683;28;20047;-48
2023/12/30 02:55:21;;;;;;;1.80;1.27;;;;;;;4.31;76.95;99487.44;4985331;28;20053;-48
2023/12/30 02:57:49;;;;;;;4.50;1.95;;;;;;;4.30;76.66;99483.16;4978308;28;20137;-44
2023/12/30 03:00:17;;;;;;;3.28;1.70;;;;;;;4.30;76.86;99496.00;4979529;28;20051;-50
2023/12/30 03:02:48;;;;;;;4.38;1.33;;;;;;;4.30;77.33;99490.88;4983316;28;20046;-47
2023/12/30 03:05:15;;;;;;;1.52;1.42;;;;;;;4.31;77.15;99491.69;4974980;28;20038;-52
2023/12/30 03:07:42;;;;;;;7.80;1.75;;;;;;;4.29;77.05;99494.25;4975242;28;20101;-50
2023/12/30 03:10:10;;;;;;;3.38;1.42;;;;;;;4.32;77.01;99491.72;4985579;28;20053;-48
2023/12/30 03:12:37;;;;;;;1.60;1.42;;;;;;;4.33;76.79;99479.78;4983125;28;20042;-45
2023/12/30 03:15:04;;;;;;;2.38;2.25;;;;;;;4.34;76.30;99487.50;4980523;28;20047;-49
2023/12/30 03:17:31;;;;;;;4.18;1.90;;;;;;;4.36;76.90;99475.53;4982122;28;20603;-47
2023/12/30 03:19:58;;;;;;;2.38;1.80;;;;;;;4.38;77.45;99485.81;4984823;28;20061;-46
2023/12/30 03:22:26;;;;;;;5.88;1.35;;;;;;;4.39;76.82;99489.25;4980441;28;20050;-48
2023/12/30 03:24:53;;;;;;;1.67;1.58;;;;;;;4.40;76.58;99480.72;4983502;28;20137;-47
2023/12/30 03:27:20;;;;;;;2.30;2.03;;;;;;;4.42;77.26;99474.75;4986423;28;20042;-51
2023/12/30 03:29:47;;;;;;;2.55;1.70;;;;;;;4.42;76.43;99474.75;4981260;28;20146;-43
2023/12/30 03:32:14;;;;;;;2.42;2.22;;;;;;;4.44;77.04;99474.78;4976518;28;20050;-49
2023/12/30 03:34:43;;;;;;;7.65;2.42;;;;;;;4.46;77.30;99471.41;4986268;28;20057;-45
2023/12/30 03:37:10;;;;;;;4.45;1.13;;;;;;;4.44;76.95;99472.22;4996008;28;20050;-47
2023/12/30 03:39:38;;;;;;;6.53;1.48;;;;;;;4.46;77.11;99475.69;4983610;28;20047;-42
2023/12/30 03:42:08;;;;;;;2.22;1.42;;;;;;;4.46;77.21;99475.69;4984195;28;20042;-47
2023/12/30 03:44:35;;;;;;;2.20;1.42;;;;;;;4.47;77.35;99477.41;4977011;28;20050;-44
2023/12/30 03:47:02;;;;;;;4.57;1.52;;;;;;;4.47;76.56;99469.69;4982900;28;20046;-46
2023/12/30 03:49:28;;;;;;;4.45;1.50;;;;;;;4.46;76.44;99470.56;4983361;28;20050;-46
2023/12/30 03:51:55;;;;;;;4.63;1.58;;;;;;;4.48;76.65;99477.41;4984159;28;20047;-48
2023/12/30 03:54:22;;;;;;;5.90;1.42;;;;;;;4.49;77.17;99484.25;4983381;28;20126;-48
2023/12/30 03:56:48;;;;;;;1.98;1.50;;;;;;;4.49;76.46;99488.53;4984204;28;20059;-44
2023/12/30 03:59:15;;;;;;;4.72;1.73;;;;;;;4.51;76.37;99489.41;4978159;28;20049;-47
2023/12/30 04:01:43;;;;;;;1.98;1.35;;;;;;;4.53;77.01;99495.44;4980177;28;20504;-46
2023/12/30 04:04:10;;;;;;;3.72;1.55;;;;;;;4.55;77.14;99491.19;4984122;28;20070;-47
2023/12/30 04:06:37;;;;;;;7.07;1.60;;;;;;;4.57;77.31;99484.38;4982538;28;20579;-44
2023/12/30 04:09:04;;;;;;;2.05;1.23;;;;;;;4.58;76.46;99480.97;4984532;28;20144;-46
2023/12/30 04:11:32;;;;;;;4.80;1.65;;;;;;;4.59;76.67;99480.09;4982978;28;20113;-46
2023/12/30 04:13:59;;;;;;;3.85;1.08;;;;;;;4.61;76.58;99480.13;4986824;28;20050;-48
2023/12/30 04:16:25;;;;;;;3.13;1.55;;;;;;;4.66;76.51;99482.75;4982674;28;20052;-50
2023/12/30 04:18:52;;;;;;;3.97;2.00;;;;;;;4.67;76.36;99480.22;4986625;28;20050;-47
2023/12/30 04:21:19;;;;;;;5.32;1.60;;;;;;;4.70;77.18;99479.38;4982749;28;20046;-46
2023/12/30 04:23:46;;;;;;;5.43;2.28;;;;;;;4.70;76.86;99474.25;4981984;28;20081;-45
2023/12/30 04:26:13;;;;;;;2.40;1.33;;;;;;;4.72;77.26;99468.31;4983336;28;20116;-48
2023/12/30 04:28:40;;;;;;;2.22;1.60;;;;;;;4.76;77.13;99471.75;4986129;28;20050;-49
2023/12/30 04:31:07;;;;;;;2.13;1.23;;;;;;;4.77;76.97;99465.78;4981803;28;20065;-45
2023/12/30 04:33:35;;;;;;;2.35;1.27;;;;;;;4.78;76.98;99470.06;4984329;28;20066;-45
2023/12/30 04:36:05;;;;;;;3.08;1.45;;;;;;;4.80;76.88;99470.09;4979474;28;20055;-50
2023/12/30 04:38:32;;;;;;;5.78;1.92;;;;;;;4.80;76.27;99460.69;4985458;28;20488;-41
2023/12/30 04:40:59;;;;;;;1.70;1.35;;;;;;;4.80;77.24;99460.69;4980713;28;20053;-47
2023/12/30 04:43:26;;;;;;;5.00;1.13;;;;;;;4.84;76.85;99459.91;4981224;28;20046;-42
2023/12/30 04:45:52;;;;;;;2.30;1.42;;;;;;;4.83;77.10;99445.31;4980655;28;20046;-44
2023/12/30 04:48:19;;;;;;;2.65;2.13;;;;;;;4.84;76.40;99453.88;4981681;28;20058;-47
2023/12/30 04:50:46;;;;;;;2.03;1.63;;;;;;;4.84;76.75;99441.94;4985751;28;20046;-46
2023/12/30 04:53:13;;;;;;;3.45;1.27;;;;;;;4.84;76.21;99441.94;4980669;28;20060;-47
2023/12/30 04:55:40;;;;;;;1.50;1.38;;;;;;;4.84;76.68;99441.94;4988519;28;20046;-46
2023/12/30 04:58:07;;;;;;;1.70;1.58;;;;;;;4.83;77.17;99440.19;4985689;28;20046;-45
2023/12/30 05:00:34;;;;;;;3.05;1.42;;;;;;;4.83;77.08;99435.06;4986112;28;20054;-53
2023/12/30 05:03:02;;;;;;;4.15;1.83;;;;;;;4.83;76.52;99440.19;4986994;28;20133;-44
2023/12/30 05:05:29;;;;;;;2.55;1.02;;;;;;;4.83;76.40;99440.19;4987955;28;20456;-46
2023/12/30 05:07:56;;;;;;;2.55;1.42;;;;;;;4.83;76.24;99442.75;4985756;28;20125;-47
2023/12/30 05:10:23;;;;;;;3.58;2.42;;;;;;;4.83;77.26;99432.50;4986618;28;20054;-49
2023/12/30 05:12:50;;;;;;;7.65;1.73;;;;;;;4.83;76.65;99429.09;4980240;28;20487;-50
2023/12/30 05:15:17;;;;;;;2.35;1.88;;;;;;;4.82;77.27;99428.22;4989007;28;20042;-46
2023/12/30 05:17:44;;;;;;;4.22;2.53;;;;;;;4.80;76.92;99419.63;4988481;28;20042;-48
2023/12/30 05:20:12;;;;;;;2.45;1.70;;;;;;;4.79;76.91;99417.91;4986192;28;20056;-51
2023/12/30 05:22:40;;;;;;;2.05;1.80;;;;;;;4.78;77.53;99426.47;4987130;28;20054;-48
2023/12/30 05:25:07;;;;;;;2.15;1.98;;;;;;;4.79;76.53;99417.91;4990440;28;20466;-44
2023/12/30 05:27:37;;;;;;;7.15;1.60;;;;;;;4.79;77.23;99419.63;4989396;28;20121;-51
2023/12/30 05:30:08;;;;;;;1.42;1.30;;;;;;;4.79;76.96;99424.75;4985987;28;20050;-51
2023/12/30 05:32:35;;;;;;;3.47;2.45;;;;;;;4.79;77.64;99425.59;4988995;28;20109;-49
2023/12/30 05:35:03;;;;;;;4.35;1.42;;;;;;;4.80;77.62;99419.63;4989392;28;20046;-46
2023/12/30 05:37:30;;;;;;;5.60;1.70;;;;;;;4.78;76.95;99411.06;4982994;28;20054;-49
2023/12/30 05:39:57;;;;;;;5.18;1.80;;;;;;;4.77;77.84;99409.34;4996089;28;20109;-50
2023/12/30 05:42:24;;;;;;;5.13;1.45;;;;;;;4.75;77.17;99414.47;4991661;28;20131;-44
2023/12/30 05:44:51;;;;;;;3.28;1.48;;;;;;;4.75;77.58;99413.59;4989518;28;20042;-44
2023/12/30 05:47:18;;;;;;;3.85;1.73;;;;;;;4.75;77.56;99411.03;4988130;28;20042;-48
2023/12/30 05:49:44;;;;;;;2.45;1.85;;;;;;;4.74;77.59;99407.63;4988987;28;20042;-47
2023/12/30 05:52:11;;;;;;;3.30;1.30;;;;;;;4.77;77.94;99409.34;4987712;28;20077;-50
2023/12/30 05:54:38;;;;;;;4.07;1.70;;;;;;;4.75;78.08;99411.91;4985449;28;20066;-47
2023/12/30 05:57:05;;;;;;;5.05;1.63;;;;;;;4.77;77.79;99404.22;4986690;28;20050;-47
2023/12/30 05:59:31;;;;;;;4.20;2.35;;;;;;;4.78;78.54;99411.06;4981475;28;20080;-44
2023/12/30 06:02:00;;;;;;;1.73;1.42;;;;;;;4.78;78.66;99411.06;4986964;28;20070;-47
2023/12/30 06:04:27;;;;;;;3.55;1.73;;;;;;;4.82;78.55;99411.94;4986939;28;20068;-46
2023/12/30 06:06:54;;;;;;;1.80;1.60;;;;;;;4.82;78.85;99407.69;4984227;28;20050;-46
2023/12/30 06:09:21;;;;;;;2.30;1.40;;;;;;;4.83;78.77;99404.25;4986441;28;20043;-45
2023/12/30 06:11:48;;;;;;;3.42;1.88;;;;;;;4.87;78.63;99411.16;4983178;28;20065;-42
2023/12/30 06:14:16;;;;;;;8.07;1.50;;;;;;;4.85;79.26;99409.41;4983187;28;20050;-46
2023/12/30 06:16:42;;;;;;;2.90;1.45;;;;;;;4.89;79.96;99409.47;4991260;28;20058;-51
2023/12/30 06:19:09;;;;;;;2.40;1.73;;;;;;;4.93;79.90;99404.38;4985921;28;20050;-53
2023/12/30 06:21:39;;;;;;;3.85;1.58;;;;;;;4.96;79.97;99404.41;4989789;28;20050;-52
2023/12/30 06:24:06;;;;;;;6.90;2.40;;;;;;;4.96;79.29;99395.00;4986788;28;20058;-48
2023/12/30 06:26:37;;;;;;;2.78;1.63;;;;;;;4.99;79.03;99404.41;4988342;28;20046;-45
2023/12/30 06:29:05;;;;;;;4.95;0.80;;;;;;;5.01;79.15;99402.75;4982002;28;20584;-47
2023/12/30 06:31:32;;;;;;;3.08;2.00;;;;;;;5.03;79.79;99405.31;4986429;28;20094;-46
2023/12/30 06:33:59;;;;;;;2.90;2.10;;;;;;;5.04;80.20;99395.06;4987970;28;20082;-47
2023/12/30 06:36:26;;;;;;;5.22;1.95;;;;;;;5.08;79.40;99378.84;4988609;28;20054;-47
2023/12/30 06:38:52;;;;;;;2.05;1.77;;;;;;;5.07;79.24;99364.28;4983424;28;20050;-42
2023/12/30 06:41:19;;;;;;;3.05;2.53;;;;;;;5.09;80.10;99349.75;4989111;28;20054;-47
2023/12/30 06:43:47;;;;;;;3.85;1.52;;;;;;;5.10;80.20;99350.63;4987223;28;20125;-48
2023/12/30 06:46:14;;;;;;;1.98;1.80;;;;;;;5.11;80.29;99363.47;4982654;28;20042;-47
2023/12/30 06:48:42;;;;;;;4.10;2.33;;;;;;;5.13;78.81;99366.91;4984552;28;20054;-43
2023/12/30 06:51:10;;;;;;;2.45;2.05;;;;;;;5.14;79.68;99363.47;4982653;28;20046;-47
2023/12/30 06:53:37;;;;;;;5.22;1.77;;;;;;;5.17;80.20;99366.94;4986593;28;20062;-46
2023/12/30 06:56:05;;;;;;;5.10;1.83;;;;;;;5.21;78.86;99353.28;4987097;28;20162;-45
2023/12/30 06:58:32;;;;;;;3.97;1.52;;;;;;;5.21;80.04;99349.00;4985012;28;20125;-49
2023/12/30 07:00:58;;;;;;;1.88;1.70;;;;;;;5.21;80.25;99328.47;4983229;28;20683;-46
2023/12/30 07:03:25;;;;;;;3.20;1.95;;;;;;;5.25;80.08;99329.34;4987676;28;20137;-48
2023/12/30 07:05:52;;;;;;;2.35;1.48;;;;;;;5.27;79.62;99332.78;4981039;28;20074;-50
2023/12/30 07:08:19;;;;;;;8.93;1.58;;;;;;;5.28;80.16;99326.81;4982834;28;20050;-46
2023/12/30 07:10:46;;;;;;;2.88;2.05;;;;;;;5.28;78.96;99313.97;4985734;28;20046;-46
2023/12/30 07:13:13;;;;;;;8.50;2.95;;;;;;;5.30;80.07;99314.81;4979006;28;20054;-45
2023/12/30 07:15:42;;;;;;;3.15;1.45;;;;;;;5.33;80.25;99302.00;4985051;28;20046;-45
2023/12/30 07:18:10;;;;;;;3.70;1.58;;;;;;;5.31;79.70;99303.72;4976426;28;20053;-46
2023/12/30 07:20:37;;;;;;;2.30;1.55;;;;;;;5.32;79.37;99297.72;4980845;28;20133;-51
2023/12/30 07:23:05;;;;;;;4.90;1.33;;;;;;;5.30;81.37;99294.28;4982215;28;20054;-48
2023/12/30 07:25:32;;;;;;;5.97;3.65;;;;;;;5.35;80.60;99290.06;4985554;28;20042;-45
2023/12/30 07:27:59;;;;;;;5.25;1.65;;;;;;;5.32;81.67;99287.47;4985088;28;20055;-46
2023/12/30 07:30:25;;;;;;;2.38;1.60;;;;;;;5.33;80.54;99286.59;4982600;28;20046;-44
2023/12/30 07:32:53;;;;;;;1.42;1.33;;;;;;;5.34;82.05;99285.75;4985123;28;20109;-41
2023/12/30 07:35:20;;;;;;;8.43;2.08;;;;;;;5.33;82.28;99286.59;4983678;28;20070;-46
2023/12/30 07:37:47;;;;;;;4.15;1.63;;;;;;;5.35;80.94;99284.03;4982164;28;20050;-45
2023/12/30 07:40:14;;;;;;;5.18;1.23;;;;;;;5.35;81.19;99287.47;4983979;28;20420;-44
2023/12/30 07:42:41;;;;;;;3.75;1.73;;;;;;;5.35;81.39;99278.91;4986166;28;20050;-47
2023/12/30 07:45:08;;;;;;;4.05;1.67;;;;;;;5.36;82.70;99271.22;4982268;28;20472;-48
2023/12/30 07:47:35;;;;;;;1.42;1.10;;;;;;;5.37;82.50;99267.78;4984930;28;20108;-45
2023/12/30 07:50:02;;;;;;;14.07;1.67;;;;;;;5.37;81.51;99257.50;4982675;28;20046;-45
2023/12/30 07:52:30;;;;;;;5.78;2.22;;;;;;;5.36;81.60;99260.94;4985792;28;20050;-49
2023/12/30 07:54:57;;;;;;;2.30;1.23;;;;;;;5.39;81.90;99253.25;4983540;28;20050;-48
2023/12/30 07:57:24;;;;;;;2.00;1.83;;;;;;;5.36;82.99;99255.81;4985784;28;20456;-45
2023/12/30 07:59:52;;;;;;;1.58;1.30;;;;;;;5.38;83.26;99256.66;4982442;28;20062;-49
2023/12/30 08:02:20;;;;;;;3.20;1.95;;;;;;;5.38;82.12;99248.94;4981034;28;20101;-41
2023/12/30 08:04:47;;;;;;;5.47;1.70;;;;;;;5.36;83.78;99245.53;4983531;28;20050;-50
2023/12/30 08:07:15;;;;;;;5.80;1.60;;;;;;;5.37;83.63;99242.09;4982561;28;20042;-53
2023/12/30 08:09:42;;;;;;;1.90;1.67;;;;;;;5.39;82.82;99235.28;4980746;28;20073;-46
2023/12/30 08:12:08;;;;;;;2.17;1.33;;;;;;;5.42;82.12;99234.44;4975131;28;20064;-48
2023/12/30 08:14:35;;;;;;;2.35;1.85;;;;;;;5.39;83.52;99222.44;4980910;28;20126;-46
2023/12/30 08:17:02;;;;;;;4.07;1.85;;;;;;;5.43;82.22;99225.88;4987129;28;20061;-47
2023/12/30 08:19:30;;;;;;;2.17;0.88;;;;;;;5.46;82.14;99230.16;4975946;28;20397;-46
2023/12/30 08:21:57;;;;;;;2.80;2.15;;;;;;;5.49;83.26;99230.19;4981555;28;20097;-47
2023/12/30 08:24:24;;;;;;;2.00;1.35;;;;;;;5.47;82.62;99226.75;4987628;28;20050;-45
2023/12/30 08:26:51;;;;;;;5.45;1.55;;;;;;;5.51;83.33;99218.22;4982982;28;20082;-45
2023/12/30 08:29:18;;;;;;;5.07;1.17;;;;;;;5.52;83.58;99219.94;4970870;28;20049;-47
2023/12/30 08:31:45;;;;;;;6.05;2.33;;;;;;;5.54;83.64;99218.22;4974131;28;20050;-48
2023/12/30 08:34:14;;;;;;;6.75;2.58;;;;;;;5.57;82.75;99207.94;4973663;28;20046;-42
2023/12/30 08:36:42;;;;;;;2.15;0.85;;;;;;;5.56;83.33;99211.38;4974440;28;20160;-43
2023/12/30 08:39:10;;;;;;;2.00;1.33;;;;;;;5.55;84.48;99198.53;4976543;28;20043;-50
2023/12/30 08:41:37;;;;;;;5.90;1.15;;;;;;;5.57;84.92;99202.81;4975070;28;20109;-45
2023/12/30 08:44:04;;;;;;;4.10;2.10;;;;;;;5.58;85.42;99194.28;4972499;28;20080;-49
2023/12/30 08:46:30;;;;;;;1.52;1.42;;;;;;;5.58;85.32;99176.28;4971421;28;20720;-42
2023/12/30 08:48:59;;;;;;;1.52;1.45;;;;;;;5.60;85.08;99182.28;4974749;28;20522;-47
2023/12/30 08:51:29;;;;;;;4.68;1.20;;;;;;;5.60;86.88;99177.16;4977556;28;20062;-48
2023/12/30 08:53:57;;;;;;;2.13;1.92;;;;;;;5.64;85.72;99172.88;4981814;28;20053;-50
2023/12/30 08:56:24;;;;;;;2.05;1.73;;;;;;;5.70;87.08;99151.47;4983466;28;20519;-48
2023/12/30 08:58:51;;;;;;;5.65;2.70;;;;;;;5.71;86.64;99169.47;4981847;28;20105;-42
2023/12/30 09:01:18;;;;;;;3.20;1.98;;;;;;;5.75;85.73;99149.78;4984014;28;20507;-48
2023/12/30 09:03:46;;;;;;;1.38;1.00;;;;;;;5.81;86.97;99159.22;4985239;28;20105;-49
2023/12/30 09:06:13;;;;;;;3.55;1.63;;;;;;;5.81;86.15;99154.91;4985582;28;20081;-48
2023/12/30 09:08:41;;;;;;;3.55;1.25;;;;;;;5.89;86.59;99162.66;4981058;28;20047;-46
2023/12/30 09:11:24;;;;;;;4.93;2.00;;;;;;;5.92;86.28;99150.66;4985038;28;20092;-47
2023/12/30 09:13:51;;;;;;;3.72;2.22;;;;;;;5.97;87.73;99149.81;4979453;28;20062;-42
2023/12/30 09:16:19;;;;;;;3.55;1.70;;;;;;;6.02;86.57;99142.97;4982962;28;20126;-47
2023/12/30 09:18:46;;;;;;;4.28;2.03;;;;;;;6.02;87.26;99148.13;4985630;28;20117;-53
2023/12/30 09:21:13;;;;;;;4.30;1.70;;;;;;;6.09;87.96;99144.75;4983714;28;20042;-46
2023/12/30 09:23:40;;;;;;;7.43;2.42;;;;;;;6.15;88.21;99147.31;4986278;28;20069;-44
2023/12/30 09:26:07;;;;;;;5.45;2.83;;;;;;;6.19;88.12;99135.31;4984527;28;20075;-47
2023/12/30 09:28:34;;;;;;;4.85;2.08;;;;;;;6.23;87.46;99125.88;4981498;28;20133;-42
2023/12/30 09:31:01;;;;;;;7.95;3.15;;;;;;;6.28;88.80;99108.72;4977117;28;20121;-46
2023/12/30 09:33:28;;;;;;;5.50;2.22;;;;;;;6.33;87.57;99101.00;4983984;28;20074;-49
2023/12/30 09:35:55;;;;;;;4.00;2.58;;;;;;;6.38;88.33;99105.31;4986864;28;20064;-47
2023/12/30 09:38:24;;;;;;;1.98;1.45;;;;;;;6.40;87.11;99119.03;4984137;28;20049;-47
2023/12/30 09:40:53;;;;;;;3.75;2.30;;;;;;;6.40;88.61;99108.75;4977372;28;20054;-51
2023/12/30 09:43:23;;;;;;;1.48;1.20;;;;;;;6.48;88.00;99100.16;4984451;28;20047;-43
2023/12/30 09:45:51;;;;;;;;;;;;;;;6.47;89.30;99098.44;4983929;28;20097;-52
2023/12/30 09:48:20;;;;;;;5.35;1.70;;;;;;;6.56;88.01;99094.13;4987162;28;19928;-42
2023/12/30 09:50:49;;;;;;;4.65;1.33;;;;;;;6.61;88.70;99085.53;4991434;28;20533;-48
2023/12/30 09:53:21;;;;;;;1.98;1.73;;;;;;;6.66;88.46;99069.22;4985761;28;20165;-47
2023/12/30 09:55:50;;;;;;;5.85;1.92;;;;;;;6.67;88.76;99055.53;4981458;28;20101;-45
2023/12/30 09:58:17;;;;;;;7.00;1.98;;;;;;;6.73;88.14;99070.09;4984260;28;20105;-47
2023/12/30 10:00:44;;;;;;;2.33;1.65;;;;;;;6.79;89.28;99056.34;4983645;28;20116;-43
2023/12/30 10:03:15;;;;;;;4.28;1.98;;;;;;;6.79;89.31;99056.34;4988406;28;20046;-49
2023/12/30 10:05:41;;;;;;;2.85;1.48;;;;;;;6.88;88.36;99052.88;4989005;28;20121;-45
2023/12/30 10:08:09;;;;;;;7.40;2.40;;;;;;;6.94;88.09;99048.56;4982664;28;20050;-44
2023/12/30 10:10:46;;;;;;;7.30;2.75;;;;;;;6.98;89.45;99038.25;4984453;28;20050;-46
2023/12/30 10:13:16;;;;;;;5.80;1.90;;;;;;;7.02;88.76;99034.78;4997648;28;20061;-48
2023/12/30 10:15:43;;;;;;;5.00;1.88;;;;;;;7.04;88.50;99035.66;4990733;28;20042;-49
2023/12/30 10:18:13;;;;;;;3.13;1.83;;;;;;;7.11;88.87;99037.34;4983455;28;20051;-45
2023/12/30 10:20:42;;;;;;;4.03;1.27;;;;;;;7.12;88.37;99033.88;4983283;28;20416;-48
2023/12/30 10:23:09;;;;;;;4.32;2.67;;;;;;;7.14;89.28;99029.59;4980887;28;20057;-47
2023/12/30 10:25:36;;;;;;;1.55;1.45;;;;;;;7.18;88.72;99020.13;4988489;28;20061;-46
2023/12/30 10:28:04;;;;;;;4.55;2.20;;;;;;;7.25;89.74;99018.34;4984923;28;20059;-46
2023/12/30 10:30:31;;;;;;;4.68;2.65;;;;;;;7.29;89.61;99012.31;4989822;28;20067;-45
2023/12/30 10:35:43;;;;;;;4.57;1.80;;;;;;;7.70;87.39;98990.56;5041239;28;20412;-45
2023/12/30 10:38:13;;;;;;;7.25;1.52;;;;;;;7.53;88.44;98987.28;5021264;28;20053;-47
2023/12/30 10:40:40;;;;;;;6.00;0.95;;;;;;;7.55;88.80;98977.81;5026097;28;20042;-51
2023/12/30 10:43:08;;;;;;;5.13;1.08;;;;;;;7.57;88.89;98976.09;5030731;28;20609;-52
2023/12/30 10:45:35;;;;;;;3.38;0.57;;;;;;;7.59;89.75;98977.78;5029143;28;20045;-46
2023/12/30 10:48:06;;;;;;;4.43;0.90;;;;;;;7.60;89.07;98976.03;5025354;28;20129;-49
2023/12/30 10:50:38;;;;;;;3.53;1.00;;;;;;;7.63;89.12;98970.88;5028252;28;20152;-47
2023/12/30 10:53:11;;;;;;;3.70;2.10;;;;;;;7.61;89.63;98964.88;5028070;28;20047;-50
2023/12/30 10:55:47;;;;;;;2.58;1.35;;;;;;;7.65;90.47;98953.69;5042077;28;20050;-52
2023/12/30 10:58:19;;;;;;;3.53;0.80;;;;;;;7.69;90.58;98939.91;5026794;28;20041;-44
2023/12/30 11:00:53;;;;;;;4.78;0.73;;;;;;;7.69;91.00;98934.75;5028593;28;20133;-47
2023/12/30 11:03:21;;;;;;;2.03;1.00;;;;;;;7.72;90.94;98945.03;5026214;28;20046;-45
2023/12/30 11:06:07;;;;;;;5.53;1.00;;;;;;;7.74;90.79;98936.44;5024399;28;20064;-49
2023/12/30 11:08:36;;;;;;;4.03;1.23;;;;;;;7.77;91.24;98926.94;5023883;28;20158;-48
2023/12/30 11:11:04;;;;;;;2.33;1.48;;;;;;;7.89;90.30;98931.13;5024655;28;20474;-45
2023/12/30 11:13:35;;;;;;;3.15;0.93;;;;;;;7.93;90.43;98925.06;5022923;28;20061;-50
2023/12/30 11:16:19;;;;;;;2.42;0.65;;;;;;;7.97;91.18;98924.16;5025309;28;20458;-47
2023/12/30 11:18:49;;;;;;;1.98;0.98;;;;;;;8.00;90.57;98904.38;5023912;28;20515;-43
2023/12/30 11:21:46;;;;;;;2.30;0.57;;;;;;;8.06;91.03;98909.47;5023716;28;20049;-46
2023/12/30 11:24:15;;;;;;;1.15;0.65;;;;;;;8.18;90.53;98906.75;5021171;28;20041;-47
2023/12/30 11:26:43;;;;;;;2.05;1.08;;;;;;;8.25;90.23;98906.69;5022435;28;20049;-46
2023/12/30 11:29:17;;;;;;;3.72;1.05;;;;;;;8.37;90.41;98906.53;5023708;28;20054;-50
2023/12/30 11:31:46;;;;;;;3.60;0.90;;;;;;;8.42;90.16;98894.44;5023091;28;20050;-49
2023/12/30 11:34:15;;;;;;;1.35;1.10;;;;;;;8.55;89.79;98899.47;5024371;28;20073;-48
2023/12/30 11:36:45;;;;;;;4.35;1.77;;;;;;;8.68;89.04;98882.94;5023789;28;20594;-43
2023/12/30 11:39:17;;;;;;;4.43;1.10;;;;;;;8.74;88.68;98890.63;5020829;28;20525;-45
2023/12/30 11:41:44;;;;;;;2.58;1.08;;;;;;;8.77;88.67;98873.34;5022495;28;20050;-49
2023/12/30 11:44:11;;;;;;;2.28;1.10;;;;;;;8.85;88.12;98881.88;5023221;28;20096;-49
2023/12/30 11:46:38;;;;;;;3.22;1.05;;;;;;;8.92;87.87;98872.28;5014844;28;20050;-41